createdAt,value
2022-10-12T00:01:58.139Z,28.37
2022-10-12T00:04:28.817Z,27.93
2022-10-12T00:06:57.195Z,28.23
2022-10-12T00:09:25.828Z,31.83
2022-10-12T00:11:55.547Z,23.13
2022-10-12T00:14:23.977Z,41.63
2022-10-12T00:16:52.473Z,25.27
2022-10-12T00:19:20.730Z,28.70
2022-10-12T00:21:49.131Z,25.27
2022-10-12T00:24:17.760Z,36.80
2022-10-12T00:26:46.084Z,35.60
2022-10-12T00:29:16.006Z,25.47
2022-10-12T00:31:44.363Z,23.27
2022-10-12T00:34:12.744Z,23.17
2022-10-12T00:36:41.067Z,22.53
2022-10-12T00:39:10.139Z,26.83
2022-10-12T00:41:41.243Z,27.20
2022-10-12T00:44:46.081Z,25.77
2022-10-12T00:47:19.700Z,29.73
2022-10-12T00:49:50.911Z,30.33
2022-10-12T00:52:22.160Z,24.17
2022-10-12T00:54:51.413Z,22.13
2022-10-12T00:57:21.225Z,27.10
2022-10-12T00:59:52.987Z,25.17
2022-10-12T01:02:22.209Z,21.13
2022-10-12T01:04:50.607Z,25.00
2022-10-12T01:07:19.023Z,22.43
2022-10-12T01:09:47.612Z,23.83
2022-10-12T01:12:16.912Z,22.73
2022-10-12T01:14:45.242Z,24.00
2022-10-12T01:17:27.660Z,27.77
2022-10-12T01:20:27.401Z,26.03
2022-10-12T01:23:13.725Z,22.77
2022-10-12T01:25:56.432Z,23.93
2022-10-12T01:28:28.516Z,29.73
2022-10-12T01:31:00.676Z,25.40
2022-10-12T01:33:34.034Z,26.40
2022-10-12T01:36:08.152Z,30.67
2022-10-12T01:38:44.004Z,23.90
2022-10-12T01:41:16.619Z,28.67
2022-10-12T01:43:46.716Z,22.43
2022-10-12T01:46:46.628Z,22.17
2022-10-12T01:49:17.431Z,21.37
2022-10-12T01:52:04.959Z,27.57
2022-10-12T01:54:42.674Z,22.67
2022-10-12T01:57:17.137Z,23.13
2022-10-12T01:59:54.726Z,23.90
2022-10-12T02:02:28.250Z,25.90
2022-10-12T02:05:02.994Z,23.93
2022-10-12T02:07:41.510Z,24.90
2022-10-12T02:10:14.758Z,35.10
2022-10-12T02:12:44.361Z,24.73
2022-10-12T02:15:13.448Z,26.40
2022-10-12T02:17:43.812Z,25.60
2022-10-12T02:20:14.968Z,27.80
2022-10-12T02:22:46.139Z,27.03
2022-10-12T02:25:16.015Z,25.13
2022-10-12T02:27:47.427Z,23.10
2022-10-12T02:30:19.238Z,25.23
2022-10-12T02:32:54.392Z,24.33
2022-10-12T02:35:26.577Z,24.13
2022-10-12T02:37:57.116Z,21.63
2022-10-12T02:40:28.057Z,19.50
2022-10-12T02:43:09.885Z,19.43
2022-10-12T02:45:40.752Z,20.83
2022-10-12T02:48:10.876Z,21.50
2022-10-12T02:50:39.459Z,25.90
2022-10-12T02:53:08.814Z,22.10
2022-10-12T02:55:39.924Z,24.20
2022-10-12T02:58:08.348Z,26.40
2022-10-12T03:00:36.908Z,29.23
2022-10-12T03:03:05.322Z,22.67
2022-10-12T03:05:35.194Z,21.97
2022-10-12T03:08:03.583Z,24.20
2022-10-12T03:10:31.958Z,27.30
2022-10-12T03:13:00.451Z,24.13
2022-10-12T03:15:28.765Z,22.43
2022-10-12T03:17:57.023Z,25.73
2022-10-12T03:20:25.374Z,26.30
2022-10-12T03:22:55.201Z,26.23
2022-10-12T03:25:23.504Z,24.33
2022-10-12T03:27:51.738Z,23.40
2022-10-12T03:30:20.016Z,24.57
2022-10-12T03:32:48.294Z,23.70
2022-10-12T03:35:16.695Z,23.67
2022-10-12T03:37:44.917Z,23.77
2022-10-12T03:40:15.136Z,24.80
2022-10-12T03:42:43.541Z,23.87
2022-10-12T03:45:12.543Z,27.80
2022-10-12T03:47:41.144Z,24.13
2022-10-12T03:50:10.497Z,35.83
2022-10-12T03:52:38.747Z,26.17
2022-10-12T03:55:08.029Z,26.07
2022-10-12T03:57:38.530Z,25.50
2022-10-12T04:00:08.383Z,21.20
2022-10-12T04:02:45.415Z,22.53
2022-10-12T04:05:13.743Z,20.47
2022-10-12T04:07:42.003Z,22.80
2022-10-12T04:10:10.807Z,23.17
2022-10-12T04:12:40.662Z,27.70
2022-10-12T04:15:10.366Z,22.63
2022-10-12T04:17:39.107Z,26.10
2022-10-12T04:20:08.803Z,20.10
2022-10-12T04:22:37.131Z,29.93
2022-10-12T04:25:05.878Z,21.70
2022-10-12T04:27:34.341Z,23.20
2022-10-12T04:30:04.168Z,26.53
2022-10-12T04:32:32.506Z,20.63
2022-10-12T04:35:00.941Z,28.03
2022-10-12T04:37:29.410Z,23.53
2022-10-12T04:39:57.697Z,21.57
2022-10-12T04:42:26.070Z,20.50
2022-10-12T04:44:56.071Z,25.07
2022-10-12T04:47:25.838Z,23.93
2022-10-12T04:49:54.232Z,23.63
2022-10-12T04:52:22.541Z,32.60
2022-10-12T04:54:50.825Z,23.40
2022-10-12T04:57:20.051Z,24.40
2022-10-12T04:59:48.527Z,19.83
2022-10-12T05:02:17.272Z,22.80
2022-10-12T05:04:47.097Z,22.30
2022-10-12T05:07:15.438Z,19.70
2022-10-12T05:09:43.961Z,20.03
2022-10-12T05:12:12.442Z,18.50
2022-10-12T05:14:40.775Z,24.50
2022-10-12T05:17:09.080Z,25.93
2022-10-12T05:19:37.911Z,25.20
2022-10-12T05:22:07.649Z,22.63
2022-10-12T05:24:35.957Z,21.23
2022-10-12T05:27:04.332Z,25.60
2022-10-12T05:29:32.543Z,23.40
2022-10-12T05:32:00.811Z,21.37
2022-10-12T05:34:29.065Z,24.77
2022-10-12T05:36:58.368Z,24.93
2022-10-12T05:39:28.039Z,23.30
2022-10-12T05:41:56.365Z,24.33
2022-10-12T05:44:24.792Z,20.20
2022-10-12T05:46:53.246Z,24.77
2022-10-12T05:49:21.721Z,22.43
2022-10-12T05:51:50.205Z,28.20
2022-10-12T05:54:18.481Z,25.60
2022-10-12T05:56:48.492Z,24.93
2022-10-12T05:59:18.220Z,25.53
2022-10-12T06:01:51.394Z,26.17
2022-10-12T06:04:24.136Z,27.90
2022-10-12T06:06:57.217Z,24.13
2022-10-12T06:09:27.000Z,27.33
2022-10-12T06:12:01.103Z,22.70
2022-10-12T06:14:29.599Z,23.33
2022-10-12T06:16:58.039Z,27.87
2022-10-12T06:19:26.587Z,20.53
2022-10-12T06:21:54.904Z,28.13
2022-10-12T06:24:23.527Z,24.83
2022-10-12T06:26:51.795Z,44.33
2022-10-12T06:29:23.396Z,21.43
2022-10-12T06:31:52.036Z,25.00
2022-10-12T06:34:20.361Z,20.87
2022-10-12T06:36:49.135Z,20.30
2022-10-12T06:39:17.431Z,27.60
2022-10-12T06:41:46.622Z,23.83
2022-10-12T06:44:15.010Z,22.90
2022-10-12T06:46:44.821Z,23.37
2022-10-12T06:49:13.501Z,27.17
2022-10-12T06:51:41.769Z,22.97
2022-10-12T06:54:10.072Z,22.50
2022-10-12T06:56:39.648Z,25.67
2022-10-12T06:59:08.261Z,22.83
2022-10-12T07:01:36.665Z,26.90
2022-10-12T07:04:06.829Z,24.93
2022-10-12T07:06:35.085Z,21.30
2022-10-12T07:09:03.393Z,25.50
2022-10-12T07:11:31.643Z,24.63
2022-10-12T07:14:00.313Z,16.40
2022-10-12T07:16:28.765Z,20.30
2022-10-12T07:18:57.044Z,20.33
2022-10-12T07:21:26.896Z,24.07
2022-10-12T07:23:55.245Z,20.20
2022-10-12T07:26:23.577Z,20.50
2022-10-12T07:28:51.840Z,18.90
2022-10-12T07:31:20.120Z,19.63
2022-10-12T07:33:48.474Z,20.03
2022-10-12T07:36:21.168Z,20.37
2022-10-12T07:38:51.721Z,17.17
2022-10-12T07:41:20.425Z,31.33
2022-10-12T07:43:48.745Z,23.30
2022-10-12T07:46:17.100Z,16.47
2022-10-12T07:48:49.993Z,22.40
2022-10-12T07:51:19.906Z,17.13
2022-10-12T07:53:48.165Z,18.90
2022-10-12T07:56:18.563Z,18.80
2022-10-12T07:58:50.193Z,14.63
2022-10-12T08:01:19.601Z,29.97
2022-10-12T08:03:48.060Z,18.70
2022-10-12T08:06:18.604Z,1999.90
2022-10-12T08:08:46.963Z,1999.90
2022-10-12T08:11:15.520Z,1999.90
2022-10-12T08:13:45.454Z,1999.90
2022-10-12T08:16:15.932Z,1999.90
2022-10-12T08:18:44.524Z,1999.90
2022-10-12T08:21:14.053Z,1999.90
2022-10-12T08:23:44.574Z,1999.90
2022-10-12T08:26:13.729Z,1999.90
2022-10-12T08:28:42.227Z,1999.90
2022-10-12T08:31:13.935Z,1999.90
2022-10-12T08:33:42.246Z,1999.90
2022-10-12T08:36:12.508Z,1999.90
2022-10-12T08:38:43.297Z,20.80
2022-10-12T08:41:30.731Z,60.47
2022-10-12T08:44:08.320Z,14.30
2022-10-12T08:46:38.102Z,23.20
2022-10-12T08:49:09.011Z,20.30
2022-10-12T08:51:44.803Z,18.80
2022-10-12T08:54:15.181Z,15.63
2022-10-12T08:56:44.044Z,18.77
2022-10-12T08:59:14.775Z,22.13
2022-10-12T09:01:57.364Z,19.90
2022-10-12T09:04:39.865Z,16.97
2022-10-12T09:07:13.084Z,17.70
2022-10-12T09:09:53.551Z,15.00
2022-10-12T09:12:30.542Z,15.93
2022-10-12T09:15:01.749Z,13.50
2022-10-12T09:17:34.027Z,11.87
2022-10-12T09:20:06.004Z,9.70
2022-10-12T09:22:35.537Z,11.80
2022-10-12T09:25:04.747Z,1999.90
2022-10-12T09:27:33.385Z,1999.90
2022-10-12T09:30:04.349Z,1999.90
2022-10-12T09:32:51.432Z,1999.90
2022-10-12T09:35:20.167Z,252.83
2022-10-12T09:37:52.027Z,34.40
2022-10-12T09:40:23.774Z,26.73
2022-10-12T09:42:52.579Z,24.33
2022-10-12T09:45:22.087Z,24.23
2022-10-12T09:48:24.106Z,21.80
2022-10-12T09:50:55.352Z,19.17
2022-10-12T09:53:29.585Z,14.93
2022-10-12T09:56:01.812Z,23.93
2022-10-12T09:58:30.870Z,20.40
2022-10-12T10:01:29.990Z,20.40
2022-10-12T10:04:12.227Z,13.37
2022-10-12T10:06:42.314Z,3.20
2022-10-12T10:09:28.197Z,6.57
2022-10-12T10:11:56.960Z,11.57
2022-10-12T10:14:25.561Z,10.10
2022-10-12T10:16:54.816Z,10.40
2022-10-12T10:19:26.560Z,11.23
2022-10-12T10:21:56.371Z,11.40
2022-10-12T10:24:28.655Z,11.90
2022-10-12T10:26:58.614Z,11.60
2022-10-12T10:29:38.824Z,9.73
2022-10-12T10:32:24.166Z,9.43
2022-10-12T10:35:05.578Z,11.53
2022-10-12T10:37:34.548Z,9.27
2022-10-12T10:40:03.233Z,11.17
2022-10-12T10:42:33.850Z,12.20
2022-10-12T10:45:04.627Z,10.20
2022-10-12T10:47:36.002Z,9.47
2022-10-12T10:50:08.222Z,11.40
2022-10-12T10:52:37.947Z,11.17
2022-10-12T10:55:21.797Z,11.13
2022-10-12T10:57:58.046Z,7.90
2022-10-12T11:00:38.527Z,8.97
2022-10-12T11:03:14.799Z,6.73
2022-10-12T11:05:48.106Z,4.90
2022-10-12T11:08:19.870Z,5.63
2022-10-12T11:10:50.554Z,3.83
2022-10-12T11:13:21.341Z,4.97
2022-10-12T11:15:52.456Z,10.07
2022-10-12T11:18:25.149Z,8.13
2022-10-12T11:20:59.372Z,7.70
2022-10-12T11:23:35.545Z,11.00
2022-10-12T11:26:21.618Z,6.23
2022-10-12T11:28:50.557Z,7.33
2022-10-12T11:31:23.841Z,8.23
2022-10-12T11:33:52.501Z,5.23
2022-10-12T11:36:25.019Z,6.60
2022-10-12T11:38:55.908Z,4.77
2022-10-12T11:41:35.330Z,8.33
2022-10-12T11:44:09.510Z,3.97
2022-10-12T11:46:40.987Z,3.90
2022-10-12T11:49:14.689Z,3.53
2022-10-12T11:51:47.788Z,4.17
2022-10-12T11:54:22.524Z,9.30
2022-10-12T11:56:52.475Z,3.93
2022-10-12T11:59:26.022Z,3.10
2022-10-12T12:02:10.698Z,3.60
2022-10-12T12:04:43.697Z,3.10
2022-10-12T12:07:55.553Z,6.23
2022-10-12T12:10:54.246Z,4.17
2022-10-12T12:13:27.272Z,4.90
2022-10-12T12:16:32.882Z,5.43
2022-10-12T12:19:19.206Z,7.70
2022-10-12T12:22:26.537Z,11.50
2022-10-12T12:25:04.236Z,5.03
2022-10-12T12:27:39.861Z,5.17
2022-10-12T12:30:35.315Z,5.00
2022-10-12T12:33:05.054Z,5.70
2022-10-12T12:35:38.776Z,3.07
2022-10-12T12:38:19.035Z,5.27
2022-10-12T12:41:05.119Z,9.37
2022-10-12T12:43:42.699Z,2.57
2022-10-12T12:46:12.357Z,7.53
2022-10-12T12:49:02.959Z,4.97
2022-10-12T12:51:38.156Z,10.20
2022-10-12T12:54:13.195Z,5.60
2022-10-12T12:56:44.279Z,5.57
2022-10-12T12:59:50.218Z,5.07
2022-10-12T13:02:49.225Z,5.47
2022-10-12T13:06:01.668Z,4.37
2022-10-12T13:08:38.052Z,9.20
2022-10-12T13:11:38.623Z,3.43
2022-10-12T13:14:18.875Z,5.67
2022-10-12T13:19:51.280Z,7.07
2022-10-12T13:22:29.014Z,7.53
2022-10-12T13:25:01.382Z,4.37
2022-10-12T13:27:34.050Z,2.93
2022-10-12T13:30:07.628Z,12.20
2022-10-12T13:32:44.100Z,3.07
2022-10-12T13:35:18.607Z,3.90
2022-10-12T13:37:46.930Z,4.80
2022-10-12T13:40:32.792Z,5.23
2022-10-12T13:43:33.368Z,10.30
2022-10-12T13:46:02.230Z,8.97
2022-10-12T13:48:54.313Z,17.47
2022-10-12T13:51:26.938Z,6.00
2022-10-12T13:53:55.534Z,6.37
2022-10-12T13:56:25.302Z,3.53
2022-10-12T13:58:56.856Z,13.50
2022-10-12T14:01:25.375Z,1.70
2022-10-12T14:03:54.086Z,2.83
2022-10-12T14:06:29.575Z,5.17
2022-10-12T14:08:59.500Z,2.67
2022-10-12T14:11:28.800Z,12.30
2022-10-12T14:13:58.005Z,2.10
2022-10-12T14:16:26.648Z,7.90
2022-10-12T14:18:55.099Z,7.10
2022-10-12T14:21:25.746Z,10.73
2022-10-12T14:23:57.156Z,6.70
2022-10-12T14:26:31.095Z,5.07
2022-10-12T14:29:01.227Z,8.17
2022-10-12T14:31:52.217Z,4.00
2022-10-12T14:34:40.961Z,6.10
2022-10-12T14:37:28.088Z,3.30
2022-10-12T14:40:02.636Z,7.30
2022-10-12T14:42:33.721Z,5.10
2022-10-12T14:45:03.192Z,5.00
2022-10-12T14:47:33.955Z,2.20
2022-10-12T14:50:07.865Z,9.43
2022-10-12T14:52:40.383Z,5.50
2022-10-12T14:55:15.752Z,5.47
2022-10-12T14:57:44.333Z,5.37
2022-10-12T15:00:16.070Z,6.77
2022-10-12T15:02:44.918Z,7.33
2022-10-12T15:05:14.286Z,6.27
2022-10-12T15:07:42.742Z,6.50
2022-10-12T15:10:13.724Z,5.00
2022-10-12T15:12:43.819Z,5.13
2022-10-12T15:15:32.099Z,4.10
2022-10-12T15:18:00.510Z,4.67
2022-10-12T15:20:29.812Z,6.87
2022-10-12T15:22:58.305Z,8.90
2022-10-12T15:25:37.878Z,8.90
2022-10-12T15:28:06.843Z,6.53
2022-10-12T15:30:52.098Z,9.20
2022-10-12T15:33:26.575Z,6.83
2022-10-12T15:35:54.914Z,9.07
2022-10-12T15:38:23.646Z,12.10
2022-10-12T15:40:53.651Z,10.00
2022-10-12T15:43:21.996Z,10.80
2022-10-12T15:45:50.294Z,12.67
2022-10-12T15:48:18.721Z,11.57
2022-10-12T15:50:49.229Z,13.33
2022-10-12T15:53:21.120Z,8.27
2022-10-12T15:55:49.443Z,10.40
2022-10-12T15:58:19.939Z,10.30
2022-10-12T16:00:48.744Z,6.23
2022-10-12T16:03:24.302Z,11.13
2022-10-12T16:05:54.422Z,8.50
2022-10-12T16:08:22.759Z,10.77
2022-10-12T16:10:51.657Z,9.53
2022-10-12T16:13:22.536Z,11.00
2022-10-12T16:15:50.913Z,18.80
2022-10-12T16:18:19.319Z,8.43
2022-10-12T16:20:53.463Z,8.20
2022-10-12T16:23:24.859Z,10.30
2022-10-12T16:25:57.038Z,12.17
2022-10-12T16:28:27.193Z,5.83
2022-10-12T16:31:00.330Z,12.57
2022-10-12T16:33:28.702Z,10.50
2022-10-12T16:35:57.091Z,7.50
2022-10-12T16:38:25.435Z,6.10
2022-10-12T16:40:56.340Z,5.87
2022-10-12T16:43:26.045Z,5.23
2022-10-12T16:45:57.586Z,3.90
2022-10-12T16:48:25.878Z,9.40
2022-10-12T16:57:59.726Z,4.97
2022-10-12T17:03:47.992Z,9.20
2022-10-12T17:10:30.712Z,7.80
2022-10-12T17:13:05.865Z,6.60
2022-10-12T17:15:42.005Z,5.00
2022-10-12T17:18:10.549Z,27.70
2022-10-12T17:20:40.446Z,5.20
2022-10-12T17:23:09.229Z,14.47
2022-10-12T17:25:39.474Z,16.00
2022-10-12T17:28:07.958Z,14.30
2022-10-12T17:30:39.410Z,17.77
2022-10-12T17:33:08.009Z,14.00
2022-10-12T17:35:42.684Z,15.20
2022-10-12T17:38:12.596Z,18.10
2022-10-12T17:40:41.976Z,16.73
2022-10-12T17:43:11.917Z,16.87
2022-10-12T17:45:41.137Z,14.00
2022-10-12T17:48:13.772Z,14.37
2022-10-12T17:50:45.135Z,12.67
2022-10-12T17:53:17.437Z,13.97
2022-10-12T17:55:48.909Z,13.07
2022-10-12T17:58:18.139Z,13.63
2022-10-12T18:00:47.838Z,14.30
2022-10-12T18:03:17.055Z,15.80
2022-10-12T18:05:50.674Z,16.23
2022-10-12T18:08:19.301Z,13.47
2022-10-12T18:10:48.138Z,15.20
2022-10-12T18:13:17.253Z,18.50
2022-10-12T18:15:46.773Z,15.83
2022-10-12T18:18:16.707Z,13.90
2022-10-12T18:20:51.900Z,14.77
2022-10-12T18:23:21.752Z,15.00
2022-10-12T18:25:51.169Z,19.00
2022-10-12T18:28:22.059Z,14.70
2022-10-12T18:30:52.423Z,15.67
2022-10-12T18:33:21.761Z,20.40
2022-10-12T18:35:52.954Z,15.77
2022-10-12T18:38:23.128Z,20.80
2022-10-12T18:40:53.328Z,22.20
2022-10-12T18:43:23.772Z,17.83
2022-10-12T18:45:57.545Z,16.13
2022-10-12T18:48:31.295Z,19.70
2022-10-12T18:51:06.873Z,15.60
2022-10-12T18:53:45.267Z,15.90
2022-10-12T18:56:15.993Z,18.60
2022-10-12T18:58:46.674Z,19.17
2022-10-12T19:01:22.526Z,16.40
2022-10-12T19:03:56.914Z,23.37
2022-10-12T19:06:30.174Z,17.33
2022-10-12T19:09:03.217Z,19.10
2022-10-12T19:11:33.004Z,19.90
2022-10-12T19:14:05.184Z,19.43
2022-10-12T19:16:36.728Z,20.47
2022-10-12T19:19:14.788Z,18.77
2022-10-12T19:21:48.811Z,16.30
2022-10-12T19:24:19.409Z,20.97
2022-10-12T19:26:58.797Z,18.90
2022-10-12T19:29:30.256Z,21.20
2022-10-12T19:31:59.908Z,15.50
2022-10-12T19:34:31.095Z,15.80
2022-10-12T19:37:04.467Z,16.13
2022-10-12T19:39:34.416Z,17.73
2022-10-12T19:42:04.889Z,23.90
2022-10-12T19:44:34.075Z,17.23
2022-10-12T19:47:04.560Z,17.60
2022-10-12T19:49:37.360Z,16.67
2022-10-12T19:52:10.545Z,17.37
2022-10-12T19:54:40.061Z,17.33
2022-10-12T19:57:09.931Z,21.63
2022-10-12T19:59:40.823Z,16.83
2022-10-12T20:02:12.736Z,16.13
2022-10-12T20:04:43.194Z,27.03
2022-10-12T20:07:14.313Z,22.87
2022-10-12T20:09:43.438Z,21.60
2022-10-12T20:12:13.002Z,17.30
2022-10-12T20:14:43.137Z,22.43
2022-10-12T20:17:14.369Z,18.47
2022-10-12T20:19:43.727Z,16.93
2022-10-12T20:22:15.590Z,21.17
2022-10-12T20:24:44.491Z,18.83
2022-10-12T20:27:12.818Z,19.00
2022-10-12T20:29:41.592Z,18.10
2022-10-12T20:32:10.173Z,19.70
2022-10-12T20:34:38.586Z,19.00
2022-10-12T20:37:15.791Z,20.40
2022-10-12T20:39:50.928Z,18.20
2022-10-12T20:42:23.174Z,21.20
2022-10-12T20:44:57.937Z,20.47
2022-10-12T20:47:29.255Z,21.60
2022-10-12T20:50:00.238Z,18.70
2022-10-12T20:52:28.654Z,20.57
2022-10-12T20:54:58.820Z,25.67
2022-10-12T20:57:27.266Z,19.23
2022-10-12T20:59:55.680Z,22.77
2022-10-12T21:02:24.055Z,25.57
2022-10-12T21:04:52.455Z,24.87
2022-10-12T21:07:21.026Z,22.13
2022-10-12T21:09:49.662Z,24.23
2022-10-12T21:12:19.868Z,17.97
2022-10-12T21:14:48.649Z,18.50
2022-10-12T21:17:17.122Z,19.40
2022-10-12T21:19:45.522Z,21.77
2022-10-12T21:22:13.775Z,19.87
2022-10-12T21:24:42.191Z,19.37
2022-10-12T21:27:10.549Z,19.37
2022-10-12T21:29:40.346Z,25.50
2022-10-12T21:32:08.747Z,20.50
2022-10-12T21:34:37.049Z,17.30
2022-10-12T21:37:05.333Z,19.83
2022-10-12T21:39:33.636Z,21.53
2022-10-12T21:42:01.826Z,22.00
2022-10-12T21:44:30.217Z,20.07
2022-10-12T21:47:00.185Z,19.63
2022-10-12T21:49:28.528Z,23.77
2022-10-12T21:51:56.962Z,21.70
2022-10-12T21:54:25.286Z,23.50
2022-10-12T21:56:53.591Z,23.37
2022-10-12T21:59:21.915Z,24.83
2022-10-12T22:01:50.251Z,20.80
2022-10-12T22:04:20.252Z,23.90
2022-10-12T22:06:48.516Z,21.53
2022-10-12T22:09:19.375Z,19.53
2022-10-12T22:11:48.104Z,19.90
2022-10-12T22:14:18.220Z,23.60
2022-10-12T22:16:46.597Z,19.83
2022-10-12T22:19:18.981Z,25.77
2022-10-12T22:21:50.044Z,27.10
2022-10-12T22:24:18.417Z,23.50
2022-10-12T22:26:47.052Z,23.60
2022-10-12T22:29:15.742Z,19.90
2022-10-12T22:31:44.670Z,21.70
2022-10-12T22:34:13.769Z,21.03
2022-10-12T22:36:44.222Z,24.43
2022-10-12T22:39:13.977Z,24.93
2022-10-12T22:41:45.765Z,24.77
2022-10-12T22:44:14.074Z,29.60
2022-10-12T22:46:42.413Z,23.53
2022-10-12T22:49:10.854Z,23.60
2022-10-12T22:51:40.290Z,25.83
2022-10-12T22:54:09.750Z,27.10
2022-10-12T22:56:44.315Z,25.80
2022-10-12T22:59:15.209Z,25.20
2022-10-12T23:01:44.113Z,26.67
2022-10-12T23:04:12.743Z,30.67
2022-10-12T23:06:41.120Z,33.93
2022-10-12T23:09:09.482Z,32.70
2022-10-12T23:11:37.836Z,25.20
2022-10-12T23:14:07.642Z,22.70
2022-10-12T23:16:36.004Z,24.47
2022-10-12T23:19:05.855Z,28.00
2022-10-12T23:21:35.424Z,28.67
2022-10-12T23:24:05.149Z,32.53
2022-10-12T23:26:33.621Z,30.37
2022-10-12T23:29:02.026Z,28.90
2022-10-12T23:31:32.273Z,27.30
2022-10-12T23:34:03.233Z,25.20
2022-10-12T23:36:32.813Z,25.30
2022-10-12T23:39:01.576Z,28.83
2022-10-12T23:41:30.201Z,29.13
2022-10-12T23:43:59.133Z,27.53
2022-10-12T23:46:27.474Z,28.00
2022-10-12T23:49:00.484Z,27.03
2022-10-12T23:51:29.098Z,25.67
2022-10-12T23:53:57.613Z,25.80
2022-10-12T23:56:25.895Z,27.73
2022-10-12T23:58:54.183Z,21.07
